South Dennis, Massachusetts
Current Conditions -  °F | °C
As of 8:34 PM on Wednesday 22 Oct 2014 (Local Time) from KHYA Reporting Station
Light Rain Light Rain  
Wind Chill: 58°   Ceiling: 300
Heat Index: 58°   Visibility: 3mi
Dew Point: 57°   Wind: 24mph
Humidity: 97%   Direction: 40°NE
Pressure: 29.69"   Gusts: 40mph
Location:  41.7°N, 70.16°W
Report Text: KHYA 230034Z 04021G35KT 3SM -RA BR OVC003 14/14 A2969 RMK AO2 PK WND 04036/0007 P0002 T01440139
Loading
Personal Weather Stations






























Interactive Weather Map
Tropical Storm Tracking
New forecast layout! Learn more

10-Day Weather Forecast

Advertisements
Track Severe Weather on mobile